Hauptseite
METAR-TAF:

METAR-TAF

Flughäfen :

Sibu, Malaysia

Breite: 02-20N, Länge: 111-50E, Höhe: 8 m

Beobachtung

Neuester Wetterbericht von vor 28 Minuten, um 18:00 UTC
Wind 1 kt aus unterschiedlichen Richtungen
Temperatur 26°C
Luftfeuchtigkeit 94%
Luftdruck 1009 hPa
Sichtweite 10 km oder mehr
Leicht bewölkt in der Höhe von 800 ft
Aufgelockert bewölkt in der Höhe von 1800 ft

METAR: WBGS 181800Z VRB01KT 9999 FEW008 SCT018 26/25 Q1009

Zeit: 02:28 (18:28 UTC)

Prognose

Neuester Wetterbericht von vor 1 Stunde und 28 Minuten, um 17:00 UTC
Gültige Prognose vom 18 um 18 UTC bis 19 um 18 UTC
Wind 3 kt aus unterschiedlichen Richtungen
Sichtweite 10 km oder mehr
Leicht bewölkt in der Höhe von 1800 ft

TAF: WBGS 181700Z 1818/1918 VRB03KT 9999 FEW018

Wetterbeobachtungen und Prognosen von mehr als 4000 Flughäfen (METAR und TAF Bericht).

Die verfügbaren Stationen werden durch gelbe und rote Markierungen auf der Karte dargestellt.

Führen Sie die Maus auf sie, um den Namen der Station zu sehen.

Darauf klicken, um die Beobachtung von Wetterbeobachtungen und Prognosen zu sehen.

Um die Karte zu ändern : klicken Sie auf den grünen Tasten mit einem schwarzen Kreuz Zum Vergrößern, auf den grünen Button mit einem Gedankenstrich zu verkleinern, oder auf die grünen Pfeile für benachbarte Karten.


METAR-TAF: